sensor_id;sensor_type;location;lat;lon;timestamp;temperature;humidity
23100;DHT22;53791;50.696;4.396;2023-06-24T00:00:03;19.30;99.90
23100;DHT22;53791;50.696;4.396;2023-06-24T00:02:35;19.30;99.90
23100;DHT22;53791;50.696;4.396;2023-06-24T00:05:05;19.20;99.90
23100;DHT22;53791;50.696;4.396;2023-06-24T00:07:34;19.20;99.90
23100;DHT22;53791;50.696;4.396;2023-06-24T00:10:04;19.20;99.90
23100;DHT22;53791;50.696;4.396;2023-06-24T00:12:33;19.20;99.90
23100;DHT22;53791;50.696;4.396;2023-06-24T00:15:01;19.10;99.90
23100;DHT22;53791;50.696;4.396;2023-06-24T00:17:28;19.00;99.90
23100;DHT22;53791;50.696;4.396;2023-06-24T00:19:55;18.90;99.90
23100;DHT22;53791;50.696;4.396;2023-06-24T00:22:23;18.90;99.90
23100;DHT22;53791;50.696;4.396;2023-06-24T00:24:51;18.90;99.90
23100;DHT22;53791;50.696;4.396;2023-06-24T00:27:18;18.80;99.90
23100;DHT22;53791;50.696;4.396;2023-06-24T00:29:46;18.80;99.90
23100;DHT22;53791;50.696;4.396;2023-06-24T00:32:13;18.80;99.90
23100;DHT22;53791;50.696;4.396;2023-06-24T00:34:41;18.70;99.90
23100;DHT22;53791;50.696;4.396;2023-06-24T00:37:10;18.60;99.90
23100;DHT22;53791;50.696;4.396;2023-06-24T00:39:37;18.60;99.90
23100;DHT22;53791;50.696;4.396;2023-06-24T00:42:05;18.60;99.90
23100;DHT22;53791;50.696;4.396;2023-06-24T00:44:33;18.50;99.90
23100;DHT22;53791;50.696;4.396;2023-06-24T00:47:01;18.50;99.90
23100;DHT22;53791;50.696;4.396;2023-06-24T00:49:28;18.40;99.90
23100;DHT22;53791;50.696;4.396;2023-06-24T00:51:56;18.40;99.90
23100;DHT22;53791;50.696;4.396;2023-06-24T00:54:23;18.40;99.90
23100;DHT22;53791;50.696;4.396;2023-06-24T00:56:53;18.40;99.90
23100;DHT22;53791;50.696;4.396;2023-06-24T00:59:21;18.30;99.90
23100;DHT22;53791;50.696;4.396;2023-06-24T01:01:49;18.30;99.90
23100;DHT22;53791;50.696;4.396;2023-06-24T01:04:19;18.20;99.90
23100;DHT22;53791;50.696;4.396;2023-06-24T01:06:47;18.20;99.90
23100;DHT22;53791;50.696;4.396;2023-06-24T01:09:14;18.30;99.90
23100;DHT22;53791;50.696;4.396;2023-06-24T01:11:42;18.30;99.90
23100;DHT22;53791;50.696;4.396;2023-06-24T01:14:09;18.30;99.90
23100;DHT22;53791;50.696;4.396;2023-06-24T01:16:48;18.20;99.90
23100;DHT22;53791;50.696;4.396;2023-06-24T01:19:26;18.10;99.90
23100;DHT22;53791;50.696;4.396;2023-06-24T01:22:19;18.00;99.90
23100;DHT22;53791;50.696;4.396;2023-06-24T01:25:01;18.00;99.90
23100;DHT22;53791;50.696;4.396;2023-06-24T01:27:48;17.90;99.90
23100;DHT22;53791;50.696;4.396;2023-06-24T01:30:24;17.90;99.90
23100;DHT22;53791;50.696;4.396;2023-06-24T01:32:52;17.90;99.90
23100;DHT22;53791;50.696;4.396;2023-06-24T01:35:25;18.00;99.90
23100;DHT22;53791;50.696;4.396;2023-06-24T01:37:54;18.00;99.90
23100;DHT22;53791;50.696;4.396;2023-06-24T01:40:28;17.90;99.90
23100;DHT22;53791;50.696;4.396;2023-06-24T01:43:00;17.80;99.90
23100;DHT22;53791;50.696;4.396;2023-06-24T01:45:32;17.70;99.90
23100;DHT22;53791;50.696;4.396;2023-06-24T01:48:01;17.60;99.90
23100;DHT22;53791;50.696;4.396;2023-06-24T01:50:30;17.60;99.90
23100;DHT22;53791;50.696;4.396;2023-06-24T01:53:01;17.50;99.90
23100;DHT22;53791;50.696;4.396;2023-06-24T01:55:31;17.50;99.90
23100;DHT22;53791;50.696;4.396;2023-06-24T01:58:02;17.50;99.90
23100;DHT22;53791;50.696;4.396;2023-06-24T02:00:33;17.50;99.90
23100;DHT22;53791;50.696;4.396;2023-06-24T02:03:01;17.30;99.90
23100;DHT22;53791;50.696;4.396;2023-06-24T02:05:31;17.20;99.90
23100;DHT22;53791;50.696;4.396;2023-06-24T02:07:58;17.30;99.90
23100;DHT22;53791;50.696;4.396;2023-06-24T02:10:28;17.30;99.90
23100;DHT22;53791;50.696;4.396;2023-06-24T02:12:57;17.40;99.90
23100;DHT22;53791;50.696;4.396;2023-06-24T02:15:26;17.40;99.90
23100;DHT22;53791;50.696;4.396;2023-06-24T02:17:55;17.30;99.90
23100;DHT22;53791;50.696;4.396;2023-06-24T02:20:24;17.20;99.90
23100;DHT22;53791;50.696;4.396;2023-06-24T02:22:56;17.20;99.90
23100;DHT22;53791;50.696;4.396;2023-06-24T02:25:25;17.10;99.90
23100;DHT22;53791;50.696;4.396;2023-06-24T02:27:54;17.00;99.90
23100;DHT22;53791;50.696;4.396;2023-06-24T02:30:22;17.00;99.90
23100;DHT22;53791;50.696;4.396;2023-06-24T02:32:51;16.90;99.90
23100;DHT22;53791;50.696;4.396;2023-06-24T02:35:19;16.80;99.90
23100;DHT22;53791;50.696;4.396;2023-06-24T02:37:46;16.80;99.90
23100;DHT22;53791;50.696;4.396;2023-06-24T02:40:14;16.70;99.90
23100;DHT22;53791;50.696;4.396;2023-06-24T02:42:41;16.60;99.90
23100;DHT22;53791;50.696;4.396;2023-06-24T02:45:09;16.60;99.90
23100;DHT22;53791;50.696;4.396;2023-06-24T02:47:38;16.60;99.90
23100;DHT22;53791;50.696;4.396;2023-06-24T02:50:08;16.60;99.90
23100;DHT22;53791;50.696;4.396;2023-06-24T02:52:36;16.50;99.90
23100;DHT22;53791;50.696;4.396;2023-06-24T02:55:05;16.50;99.90
23100;DHT22;53791;50.696;4.396;2023-06-24T02:57:34;16.40;99.90
23100;DHT22;53791;50.696;4.396;2023-06-24T03:00:04;16.30;99.90
23100;DHT22;53791;50.696;4.396;2023-06-24T03:02:33;16.30;99.90
23100;DHT22;53791;50.696;4.396;2023-06-24T03:05:01;16.30;99.90
23100;DHT22;53791;50.696;4.396;2023-06-24T03:07:30;16.20;99.90
23100;DHT22;53791;50.696;4.396;2023-06-24T03:09:59;16.20;99.90
23100;DHT22;53791;50.696;4.396;2023-06-24T03:12:27;16.30;99.90
23100;DHT22;53791;50.696;4.396;2023-06-24T03:14:55;16.20;99.90
23100;DHT22;53791;50.696;4.396;2023-06-24T03:17:22;16.10;99.90
23100;DHT22;53791;50.696;4.396;2023-06-24T03:19:51;16.10;99.90
23100;DHT22;53791;50.696;4.396;2023-06-24T03:22:18;16.00;99.90
23100;DHT22;53791;50.696;4.396;2023-06-24T03:24:46;16.00;99.90
23100;DHT22;53791;50.696;4.396;2023-06-24T03:27:13;15.90;99.90
23100;DHT22;53791;50.696;4.396;2023-06-24T03:29:41;15.90;99.90
23100;DHT22;53791;50.696;4.396;2023-06-24T03:32:08;15.90;99.90
23100;DHT22;53791;50.696;4.396;2023-06-24T03:34:36;15.90;99.90
23100;DHT22;53791;50.696;4.396;2023-06-24T03:37:04;15.80;99.90
23100;DHT22;53791;50.696;4.396;2023-06-24T03:39:31;15.80;99.90
23100;DHT22;53791;50.696;4.396;2023-06-24T03:41:59;15.70;99.90
23100;DHT22;53791;50.696;4.396;2023-06-24T03:44:26;15.70;99.90
23100;DHT22;53791;50.696;4.396;2023-06-24T03:46:54;15.80;99.90
23100;DHT22;53791;50.696;4.396;2023-06-24T03:49:21;15.80;99.90
23100;DHT22;53791;50.696;4.396;2023-06-24T03:51:49;15.70;99.90
23100;DHT22;53791;50.696;4.396;2023-06-24T03:54:16;15.70;99.90
23100;DHT22;53791;50.696;4.396;2023-06-24T03:56:44;15.60;99.90
23100;DHT22;53791;50.696;4.396;2023-06-24T03:59:11;15.60;99.90
23100;DHT22;53791;50.696;4.396;2023-06-24T04:01:40;15.50;99.90
23100;DHT22;53791;50.696;4.396;2023-06-24T04:04:07;15.50;99.90
23100;DHT22;53791;50.696;4.396;2023-06-24T04:06:35;15.60;99.90
23100;DHT22;53791;50.696;4.396;2023-06-24T04:09:02;15.60;99.90
23100;DHT22;53791;50.696;4.396;2023-06-24T04:11:30;15.60;99.90
23100;DHT22;53791;50.696;4.396;2023-06-24T04:13:57;15.70;99.90
23100;DHT22;53791;50.696;4.396;2023-06-24T04:16:25;15.70;99.90
23100;DHT22;53791;50.696;4.396;2023-06-24T04:18:52;15.70;99.90
23100;DHT22;53791;50.696;4.396;2023-06-24T04:21:20;15.60;99.90
23100;DHT22;53791;50.696;4.396;2023-06-24T04:23:47;15.60;99.90
23100;DHT22;53791;50.696;4.396;2023-06-24T04:26:15;15.60;99.90
23100;DHT22;53791;50.696;4.396;2023-06-24T04:28:42;15.70;99.90
23100;DHT22;53791;50.696;4.396;2023-06-24T04:31:10;15.80;99.90
23100;DHT22;53791;50.696;4.396;2023-06-24T04:33:37;15.90;99.90
23100;DHT22;53791;50.696;4.396;2023-06-24T04:36:05;16.00;99.90
23100;DHT22;53791;50.696;4.396;2023-06-24T04:38:32;16.20;99.90
23100;DHT22;53791;50.696;4.396;2023-06-24T04:41:00;16.20;99.90
23100;DHT22;53791;50.696;4.396;2023-06-24T04:43:27;16.20;99.90
23100;DHT22;53791;50.696;4.396;2023-06-24T04:45:55;16.20;99.90
23100;DHT22;53791;50.696;4.396;2023-06-24T04:48:23;16.20;99.90
23100;DHT22;53791;50.696;4.396;2023-06-24T04:50:51;16.20;99.90
23100;DHT22;53791;50.696;4.396;2023-06-24T04:53:21;16.20;99.90
23100;DHT22;53791;50.696;4.396;2023-06-24T04:55:48;16.20;99.90
23100;DHT22;53791;50.696;4.396;2023-06-24T04:58:16;16.30;99.90
23100;DHT22;53791;50.696;4.396;2023-06-24T05:00:43;16.30;99.90
23100;DHT22;53791;50.696;4.396;2023-06-24T05:03:11;16.40;99.90
23100;DHT22;53791;50.696;4.396;2023-06-24T05:05:39;16.50;99.90
23100;DHT22;53791;50.696;4.396;2023-06-24T05:08:06;16.60;99.90
23100;DHT22;53791;50.696;4.396;2023-06-24T05:10:34;16.70;99.90
23100;DHT22;53791;50.696;4.396;2023-06-24T05:13:03;16.80;99.90
23100;DHT22;53791;50.696;4.396;2023-06-24T05:15:31;16.90;99.90
23100;DHT22;53791;50.696;4.396;2023-06-24T05:17:58;16.90;99.90
23100;DHT22;53791;50.696;4.396;2023-06-24T05:20:26;16.90;99.90
23100;DHT22;53791;50.696;4.396;2023-06-24T05:22:55;17.00;99.90
23100;DHT22;53791;50.696;4.396;2023-06-24T05:25:22;17.10;99.90
23100;DHT22;53791;50.696;4.396;2023-06-24T05:27:50;17.20;99.90
23100;DHT22;53791;50.696;4.396;2023-06-24T05:30:17;17.20;99.90
23100;DHT22;53791;50.696;4.396;2023-06-24T05:32:45;17.30;99.90
23100;DHT22;53791;50.696;4.396;2023-06-24T05:35:13;17.50;99.90
23100;DHT22;53791;50.696;4.396;2023-06-24T05:37:40;17.50;99.90
23100;DHT22;53791;50.696;4.396;2023-06-24T05:40:08;17.60;99.90
23100;DHT22;53791;50.696;4.396;2023-06-24T05:42:36;17.80;99.90
23100;DHT22;53791;50.696;4.396;2023-06-24T05:45:04;17.90;99.90
23100;DHT22;53791;50.696;4.396;2023-06-24T05:47:32;18.00;99.90
23100;DHT22;53791;50.696;4.396;2023-06-24T05:50:00;18.10;99.90
23100;DHT22;53791;50.696;4.396;2023-06-24T05:52:27;18.20;99.90
23100;DHT22;53791;50.696;4.396;2023-06-24T05:54:55;18.40;99.90
23100;DHT22;53791;50.696;4.396;2023-06-24T05:57:23;18.50;99.90
23100;DHT22;53791;50.696;4.396;2023-06-24T05:59:50;18.70;99.90
23100;DHT22;53791;50.696;4.396;2023-06-24T06:02:18;18.90;99.90
23100;DHT22;53791;50.696;4.396;2023-06-24T06:04:45;19.00;99.90
23100;DHT22;53791;50.696;4.396;2023-06-24T06:07:13;19.20;99.90
23100;DHT22;53791;50.696;4.396;2023-06-24T06:09:40;19.30;99.90
23100;DHT22;53791;50.696;4.396;2023-06-24T06:12:08;19.50;99.90
23100;DHT22;53791;50.696;4.396;2023-06-24T06:14:36;19.60;99.90
23100;DHT22;53791;50.696;4.396;2023-06-24T06:17:05;19.80;99.90
23100;DHT22;53791;50.696;4.396;2023-06-24T06:19:32;19.90;99.90
23100;DHT22;53791;50.696;4.396;2023-06-24T06:22:00;20.10;99.90
23100;DHT22;53791;50.696;4.396;2023-06-24T06:24:27;20.20;99.90
23100;DHT22;53791;50.696;4.396;2023-06-24T06:26:57;20.30;99.90
23100;DHT22;53791;50.696;4.396;2023-06-24T06:29:25;20.30;99.90
23100;DHT22;53791;50.696;4.396;2023-06-24T06:31:53;20.40;99.90
23100;DHT22;53791;50.696;4.396;2023-06-24T06:34:21;20.50;99.90
23100;DHT22;53791;50.696;4.396;2023-06-24T06:36:49;20.60;99.90
23100;DHT22;53791;50.696;4.396;2023-06-24T06:39:17;20.70;99.90
23100;DHT22;53791;50.696;4.396;2023-06-24T06:41:44;20.80;99.90
23100;DHT22;53791;50.696;4.396;2023-06-24T06:44:12;20.90;99.90
23100;DHT22;53791;50.696;4.396;2023-06-24T06:46:39;21.00;99.90
23100;DHT22;53791;50.696;4.396;2023-06-24T06:49:07;21.10;99.90
23100;DHT22;53791;50.696;4.396;2023-06-24T06:51:35;21.20;99.90
23100;DHT22;53791;50.696;4.396;2023-06-24T06:54:03;21.30;99.90
23100;DHT22;53791;50.696;4.396;2023-06-24T06:56:30;21.50;99.90
23100;DHT22;53791;50.696;4.396;2023-06-24T06:58:58;21.60;99.90
23100;DHT22;53791;50.696;4.396;2023-06-24T07:01:25;21.60;99.90
23100;DHT22;53791;50.696;4.396;2023-06-24T07:03:53;21.60;99.90
23100;DHT22;53791;50.696;4.396;2023-06-24T07:06:23;21.70;99.90
23100;DHT22;53791;50.696;4.396;2023-06-24T07:08:50;21.70;99.90
23100;DHT22;53791;50.696;4.396;2023-06-24T07:11:18;21.80;99.90
23100;DHT22;53791;50.696;4.396;2023-06-24T07:13:45;21.80;99.90
23100;DHT22;53791;50.696;4.396;2023-06-24T07:16:13;21.80;99.90
23100;DHT22;53791;50.696;4.396;2023-06-24T07:18:40;21.90;99.90
23100;DHT22;53791;50.696;4.396;2023-06-24T07:21:08;21.90;99.90
23100;DHT22;53791;50.696;4.396;2023-06-24T07:23:35;21.90;99.90
23100;DHT22;53791;50.696;4.396;2023-06-24T07:26:03;22.00;99.90
23100;DHT22;53791;50.696;4.396;2023-06-24T07:28:30;22.00;99.90
23100;DHT22;53791;50.696;4.396;2023-06-24T07:30:58;22.10;99.90
23100;DHT22;53791;50.696;4.396;2023-06-24T07:33:25;22.10;99.90
23100;DHT22;53791;50.696;4.396;2023-06-24T07:35:53;22.40;99.90
23100;DHT22;53791;50.696;4.396;2023-06-24T07:38:21;22.20;99.90
23100;DHT22;53791;50.696;4.396;2023-06-24T07:40:49;22.30;99.90
23100;DHT22;53791;50.696;4.396;2023-06-24T07:43:16;22.40;99.90
23100;DHT22;53791;50.696;4.396;2023-06-24T07:45:43;22.40;99.90
23100;DHT22;53791;50.696;4.396;2023-06-24T07:48:11;22.50;99.90
23100;DHT22;53791;50.696;4.396;2023-06-24T07:50:39;22.70;99.90
23100;DHT22;53791;50.696;4.396;2023-06-24T07:53:06;22.70;99.90
23100;DHT22;53791;50.696;4.396;2023-06-24T07:55:34;22.80;99.90
23100;DHT22;53791;50.696;4.396;2023-06-24T07:58:01;22.90;99.90
23100;DHT22;53791;50.696;4.396;2023-06-24T08:00:29;23.00;99.90
23100;DHT22;53791;50.696;4.396;2023-06-24T08:02:58;23.10;99.90
23100;DHT22;53791;50.696;4.396;2023-06-24T08:05:26;23.30;99.90
23100;DHT22;53791;50.696;4.396;2023-06-24T08:07:53;23.50;99.90
23100;DHT22;53791;50.696;4.396;2023-06-24T08:10:21;23.70;99.90
23100;DHT22;53791;50.696;4.396;2023-06-24T08:12:49;23.70;99.90
23100;DHT22;53791;50.696;4.396;2023-06-24T08:15:16;23.80;99.90
23100;DHT22;53791;50.696;4.396;2023-06-24T08:17:44;23.80;99.90
23100;DHT22;53791;50.696;4.396;2023-06-24T08:20:12;24.00;99.90
23100;DHT22;53791;50.696;4.396;2023-06-24T08:22:39;23.90;99.90
23100;DHT22;53791;50.696;4.396;2023-06-24T08:25:07;24.00;99.90
23100;DHT22;53791;50.696;4.396;2023-06-24T08:27:34;24.10;99.90
23100;DHT22;53791;50.696;4.396;2023-06-24T08:30:04;24.10;99.90
23100;DHT22;53791;50.696;4.396;2023-06-24T08:32:33;24.20;99.90
23100;DHT22;53791;50.696;4.396;2023-06-24T08:35:00;24.30;99.90
23100;DHT22;53791;50.696;4.396;2023-06-24T08:37:28;24.40;99.90
23100;DHT22;53791;50.696;4.396;2023-06-24T08:39:55;24.50;99.90
23100;DHT22;53791;50.696;4.396;2023-06-24T08:42:23;24.50;99.90
23100;DHT22;53791;50.696;4.396;2023-06-24T08:44:51;24.70;99.90
23100;DHT22;53791;50.696;4.396;2023-06-24T08:47:19;24.80;99.90
23100;DHT22;53791;50.696;4.396;2023-06-24T08:49:52;24.90;99.90
23100;DHT22;53791;50.696;4.396;2023-06-24T08:52:25;25.00;99.90
23100;DHT22;53791;50.696;4.396;2023-06-24T08:54:52;25.20;99.90
23100;DHT22;53791;50.696;4.396;2023-06-24T08:57:21;25.30;99.90
23100;DHT22;53791;50.696;4.396;2023-06-24T08:59:50;25.50;99.90
23100;DHT22;53791;50.696;4.396;2023-06-24T09:02:18;25.60;99.90
23100;DHT22;53791;50.696;4.396;2023-06-24T09:04:46;25.70;99.90
23100;DHT22;53791;50.696;4.396;2023-06-24T09:07:13;25.80;99.90
23100;DHT22;53791;50.696;4.396;2023-06-24T09:09:44;25.90;99.90
23100;DHT22;53791;50.696;4.396;2023-06-24T09:12:14;25.90;99.90
23100;DHT22;53791;50.696;4.396;2023-06-24T09:14:42;26.00;99.90
23100;DHT22;53791;50.696;4.396;2023-06-24T09:17:10;26.00;99.90
23100;DHT22;53791;50.696;4.396;2023-06-24T09:19:38;26.20;99.90
23100;DHT22;53791;50.696;4.396;2023-06-24T09:22:07;26.40;99.90
23100;DHT22;53791;50.696;4.396;2023-06-24T09:24:36;26.50;99.90
23100;DHT22;53791;50.696;4.396;2023-06-24T09:27:04;26.50;99.90
23100;DHT22;53791;50.696;4.396;2023-06-24T09:29:34;26.50;99.90
23100;DHT22;53791;50.696;4.396;2023-06-24T09:32:06;26.80;99.90
23100;DHT22;53791;50.696;4.396;2023-06-24T09:34:34;26.80;99.90
23100;DHT22;53791;50.696;4.396;2023-06-24T09:37:02;26.80;99.90
23100;DHT22;53791;50.696;4.396;2023-06-24T09:39:37;26.70;99.90
23100;DHT22;53791;50.696;4.396;2023-06-24T09:42:05;26.70;99.90
23100;DHT22;53791;50.696;4.396;2023-06-24T09:44:35;26.60;99.90
23100;DHT22;53791;50.696;4.396;2023-06-24T09:47:03;26.60;99.90
23100;DHT22;53791;50.696;4.396;2023-06-24T09:49:31;26.70;99.90
23100;DHT22;53791;50.696;4.396;2023-06-24T09:51:59;26.80;99.90
23100;DHT22;53791;50.696;4.396;2023-06-24T09:54:28;26.70;99.90
23100;DHT22;53791;50.696;4.396;2023-06-24T09:56:58;26.70;99.90
23100;DHT22;53791;50.696;4.396;2023-06-24T09:59:28;26.80;99.90
23100;DHT22;53791;50.696;4.396;2023-06-24T10:01:57;26.90;99.90
23100;DHT22;53791;50.696;4.396;2023-06-24T10:04:26;27.00;99.90
23100;DHT22;53791;50.696;4.396;2023-06-24T10:06:55;26.80;99.90
23100;DHT22;53791;50.696;4.396;2023-06-24T10:09:23;26.80;99.90
23100;DHT22;53791;50.696;4.396;2023-06-24T10:11:50;26.90;99.90
23100;DHT22;53791;50.696;4.396;2023-06-24T10:14:18;26.90;99.90
23100;DHT22;53791;50.696;4.396;2023-06-24T10:16:46;27.10;99.90
23100;DHT22;53791;50.696;4.396;2023-06-24T10:19:20;27.20;99.90
23100;DHT22;53791;50.696;4.396;2023-06-24T10:21:59;27.30;99.90
23100;DHT22;53791;50.696;4.396;2023-06-24T10:24:35;27.40;99.90
23100;DHT22;53791;50.696;4.396;2023-06-24T10:27:18;27.60;99.90
23100;DHT22;53791;50.696;4.396;2023-06-24T10:29:46;27.80;99.90
23100;DHT22;53791;50.696;4.396;2023-06-24T10:32:14;27.80;99.90
23100;DHT22;53791;50.696;4.396;2023-06-24T10:34:46;27.70;99.90
23100;DHT22;53791;50.696;4.396;2023-06-24T10:37:25;28.00;99.90
23100;DHT22;53791;50.696;4.396;2023-06-24T10:39:58;28.00;99.90
23100;DHT22;53791;50.696;4.396;2023-06-24T10:42:42;28.20;99.90
23100;DHT22;53791;50.696;4.396;2023-06-24T10:45:16;28.30;99.90
23100;DHT22;53791;50.696;4.396;2023-06-24T10:47:42;28.20;99.90
23100;DHT22;53791;50.696;4.396;2023-06-24T10:50:12;28.20;99.90
23100;DHT22;53791;50.696;4.396;2023-06-24T10:52:50;28.10;99.90
23100;DHT22;53791;50.696;4.396;2023-06-24T10:55:24;28.10;99.90
23100;DHT22;53791;50.696;4.396;2023-06-24T10:57:52;28.10;99.90
23100;DHT22;53791;50.696;4.396;2023-06-24T11:00:21;28.20;99.90
23100;DHT22;53791;50.696;4.396;2023-06-24T11:02:49;28.40;99.90
23100;DHT22;53791;50.696;4.396;2023-06-24T11:05:16;28.50;99.90
23100;DHT22;53791;50.696;4.396;2023-06-24T11:07:44;28.60;99.90
23100;DHT22;53791;50.696;4.396;2023-06-24T11:10:15;28.60;99.90
23100;DHT22;53791;50.696;4.396;2023-06-24T11:12:43;28.60;99.90
23100;DHT22;53791;50.696;4.396;2023-06-24T11:15:13;28.60;99.90
23100;DHT22;53791;50.696;4.396;2023-06-24T11:17:41;28.60;99.90
23100;DHT22;53791;50.696;4.396;2023-06-24T11:20:11;28.60;99.90
23100;DHT22;53791;50.696;4.396;2023-06-24T11:22:40;28.50;99.90
23100;DHT22;53791;50.696;4.396;2023-06-24T11:25:15;28.50;99.90
23100;DHT22;53791;50.696;4.396;2023-06-24T11:27:43;28.60;99.90
23100;DHT22;53791;50.696;4.396;2023-06-24T11:30:11;28.60;99.90
23100;DHT22;53791;50.696;4.396;2023-06-24T11:32:40;28.80;99.90
23100;DHT22;53791;50.696;4.396;2023-06-24T11:35:09;28.80;99.90
23100;DHT22;53791;50.696;4.396;2023-06-24T11:37:42;28.60;99.90
23100;DHT22;53791;50.696;4.396;2023-06-24T11:40:11;28.50;99.90
23100;DHT22;53791;50.696;4.396;2023-06-24T11:42:42;28.40;99.90
23100;DHT22;53791;50.696;4.396;2023-06-24T11:45:14;28.40;99.90
23100;DHT22;53791;50.696;4.396;2023-06-24T11:47:42;28.40;99.90
23100;DHT22;53791;50.696;4.396;2023-06-24T11:50:09;28.50;99.90
23100;DHT22;53791;50.696;4.396;2023-06-24T11:52:45;28.50;99.90
23100;DHT22;53791;50.696;4.396;2023-06-24T11:55:25;28.40;99.90
23100;DHT22;53791;50.696;4.396;2023-06-24T11:57:58;28.30;99.90
23100;DHT22;53791;50.696;4.396;2023-06-24T12:00:29;28.30;99.90
23100;DHT22;53791;50.696;4.396;2023-06-24T12:03:01;28.40;99.90
23100;DHT22;53791;50.696;4.396;2023-06-24T12:05:33;28.50;99.90
23100;DHT22;53791;50.696;4.396;2023-06-24T12:08:06;28.60;99.90
23100;DHT22;53791;50.696;4.396;2023-06-24T12:10:34;28.70;99.90
23100;DHT22;53791;50.696;4.396;2023-06-24T12:13:03;28.70;99.90
23100;DHT22;53791;50.696;4.396;2023-06-24T12:15:33;28.70;99.90
23100;DHT22;53791;50.696;4.396;2023-06-24T12:18:01;28.80;99.90
23100;DHT22;53791;50.696;4.396;2023-06-24T12:20:29;28.80;99.90
23100;DHT22;53791;50.696;4.396;2023-06-24T12:22:57;28.80;99.90
23100;DHT22;53791;50.696;4.396;2023-06-24T12:25:25;28.90;99.90
23100;DHT22;53791;50.696;4.396;2023-06-24T12:27:53;29.00;99.90
23100;DHT22;53791;50.696;4.396;2023-06-24T12:30:20;29.20;99.90
23100;DHT22;53791;50.696;4.396;2023-06-24T12:32:50;29.20;99.90
23100;DHT22;53791;50.696;4.396;2023-06-24T12:35:18;29.30;99.90
23100;DHT22;53791;50.696;4.396;2023-06-24T12:37:46;29.30;99.90
23100;DHT22;53791;50.696;4.396;2023-06-24T12:40:14;29.40;99.90
23100;DHT22;53791;50.696;4.396;2023-06-24T12:42:41;29.60;99.90
23100;DHT22;53791;50.696;4.396;2023-06-24T12:45:09;29.80;99.90
23100;DHT22;53791;50.696;4.396;2023-06-24T12:47:37;29.80;99.90
23100;DHT22;53791;50.696;4.396;2023-06-24T12:50:05;29.90;99.90
23100;DHT22;53791;50.696;4.396;2023-06-24T12:52:34;30.10;99.90
23100;DHT22;53791;50.696;4.396;2023-06-24T12:55:01;30.30;99.90
23100;DHT22;53791;50.696;4.396;2023-06-24T12:57:30;30.40;99.90
23100;DHT22;53791;50.696;4.396;2023-06-24T12:59:57;30.50;99.90
23100;DHT22;53791;50.696;4.396;2023-06-24T13:02:25;30.60;99.90
23100;DHT22;53791;50.696;4.396;2023-06-24T13:04:52;30.80;99.90
23100;DHT22;53791;50.696;4.396;2023-06-24T13:07:20;31.00;99.90
23100;DHT22;53791;50.696;4.396;2023-06-24T13:09:47;30.70;99.90
23100;DHT22;53791;50.696;4.396;2023-06-24T13:12:15;30.80;99.90
23100;DHT22;53791;50.696;4.396;2023-06-24T13:14:42;30.90;99.90
23100;DHT22;53791;50.696;4.396;2023-06-24T13:17:10;31.00;99.90
23100;DHT22;53791;50.696;4.396;2023-06-24T13:19:38;30.90;99.90
23100;DHT22;53791;50.696;4.396;2023-06-24T13:22:05;30.90;99.90
23100;DHT22;53791;50.696;4.396;2023-06-24T13:24:32;30.90;99.90
23100;DHT22;53791;50.696;4.396;2023-06-24T13:27:00;30.90;99.90
23100;DHT22;53791;50.696;4.396;2023-06-24T13:29:28;31.00;99.90
23100;DHT22;53791;50.696;4.396;2023-06-24T13:31:55;31.00;99.90
23100;DHT22;53791;50.696;4.396;2023-06-24T13:34:23;31.10;99.90
23100;DHT22;53791;50.696;4.396;2023-06-24T13:36:50;31.00;99.90
23100;DHT22;53791;50.696;4.396;2023-06-24T13:39:18;30.90;99.90
23100;DHT22;53791;50.696;4.396;2023-06-24T13:41:47;30.90;99.90
23100;DHT22;53791;50.696;4.396;2023-06-24T13:44:15;30.80;99.90
23100;DHT22;53791;50.696;4.396;2023-06-24T13:46:42;30.80;99.90
23100;DHT22;53791;50.696;4.396;2023-06-24T13:49:10;30.80;99.90
23100;DHT22;53791;50.696;4.396;2023-06-24T13:51:40;30.70;99.90
23100;DHT22;53791;50.696;4.396;2023-06-24T13:54:08;30.80;99.90
23100;DHT22;53791;50.696;4.396;2023-06-24T13:56:36;30.80;99.90
23100;DHT22;53791;50.696;4.396;2023-06-24T13:59:04;30.90;99.90
23100;DHT22;53791;50.696;4.396;2023-06-24T14:01:31;31.00;99.90
23100;DHT22;53791;50.696;4.396;2023-06-24T14:03:59;31.20;99.90
23100;DHT22;53791;50.696;4.396;2023-06-24T14:06:27;31.20;99.90
23100;DHT22;53791;50.696;4.396;2023-06-24T14:08:54;31.30;99.90
23100;DHT22;53791;50.696;4.396;2023-06-24T14:11:22;31.30;99.90
23100;DHT22;53791;50.696;4.396;2023-06-24T14:13:49;31.30;99.90
23100;DHT22;53791;50.696;4.396;2023-06-24T14:16:17;31.00;99.90
23100;DHT22;53791;50.696;4.396;2023-06-24T14:18:44;31.00;99.90
23100;DHT22;53791;50.696;4.396;2023-06-24T14:21:12;30.90;99.90
23100;DHT22;53791;50.696;4.396;2023-06-24T14:23:40;30.90;99.90
23100;DHT22;53791;50.696;4.396;2023-06-24T14:26:07;30.90;99.90
23100;DHT22;53791;50.696;4.396;2023-06-24T14:28:35;30.80;99.90
23100;DHT22;53791;50.696;4.396;2023-06-24T14:31:03;30.80;99.90
23100;DHT22;53791;50.696;4.396;2023-06-24T14:33:30;30.90;99.90
23100;DHT22;53791;50.696;4.396;2023-06-24T14:35:58;30.90;99.90
23100;DHT22;53791;50.696;4.396;2023-06-24T14:38:25;30.60;99.90
23100;DHT22;53791;50.696;4.396;2023-06-24T14:40:53;30.80;99.90
23100;DHT22;53791;50.696;4.396;2023-06-24T14:43:22;30.80;99.90
23100;DHT22;53791;50.696;4.396;2023-06-24T14:45:50;30.80;99.90
23100;DHT22;53791;50.696;4.396;2023-06-24T14:48:17;31.00;99.90
23100;DHT22;53791;50.696;4.396;2023-06-24T14:50:45;30.90;99.90
23100;DHT22;53791;50.696;4.396;2023-06-24T14:53:12;31.00;99.90
23100;DHT22;53791;50.696;4.396;2023-06-24T14:55:40;30.90;99.90
23100;DHT22;53791;50.696;4.396;2023-06-24T14:58:07;30.80;99.90
23100;DHT22;53791;50.696;4.396;2023-06-24T15:00:35;30.70;99.90
23100;DHT22;53791;50.696;4.396;2023-06-24T15:03:02;30.60;99.90
23100;DHT22;53791;50.696;4.396;2023-06-24T15:05:30;30.60;99.90
23100;DHT22;53791;50.696;4.396;2023-06-24T15:07:59;30.60;99.90
23100;DHT22;53791;50.696;4.396;2023-06-24T15:10:27;30.70;99.90
23100;DHT22;53791;50.696;4.396;2023-06-24T15:12:54;30.60;99.90
23100;DHT22;53791;50.696;4.396;2023-06-24T15:15:22;30.70;99.90
23100;DHT22;53791;50.696;4.396;2023-06-24T15:17:49;30.50;99.90
23100;DHT22;53791;50.696;4.396;2023-06-24T15:20:23;29.90;99.90
23100;DHT22;53791;50.696;4.396;2023-06-24T15:22:51;30.10;99.90
23100;DHT22;53791;50.696;4.396;2023-06-24T15:25:18;30.20;99.90
23100;DHT22;53791;50.696;4.396;2023-06-24T15:27:46;30.50;99.90
23100;DHT22;53791;50.696;4.396;2023-06-24T15:30:13;30.50;99.90
23100;DHT22;53791;50.696;4.396;2023-06-24T15:32:41;30.50;99.90
23100;DHT22;53791;50.696;4.396;2023-06-24T15:35:09;30.30;99.90
23100;DHT22;53791;50.696;4.396;2023-06-24T15:37:36;30.40;99.90